Latest Weather Observations for Wudinna Airport

IDS60801

Issued at 4:01 pm CST Tuesday 20 April 2021 (issued every 10 minutes, with the page automatically refreshed every 10 minutes)

About weather observations | Map of weather stations | Latest weather observations for SA | Other Formats
Station Details ID: 018083 Name: WUDINNA AERO Lat: -33.04 Lon: 135.45 Height: 86.4 m
Data from the previous 72 hours. | See also: Recent months at Wudinna Airport
Date/Time
CST
Temp
°C
App
Temp
°C
Dew
Point
°C
Rel
Hum
%
Delta-T
°C
Wind Press
QNH
hPa
Press
MSL
hPa
Rain since
9am
mm
Dir  Spd
km/h
Gust
km/h
Spd
kts
Gust
kts
20/04:00pm 18.3 15.2 12.3 68 3.3 SSE 20 28 11 15 1017.9 1017.8 2.0
20/03:30pm 17.7 14.5 13.2 75 2.5 SE 22 33 12 18 1017.8 1017.7 2.0
20/03:00pm 19.0 16.0 12.7 67 3.5 SE 20 33 11 18 1017.4 1017.3 2.0
20/02:30pm 18.9 16.0 12.4 66 3.6 SSE 19 26 10 14 1017.3 1017.2 2.0
20/02:00pm 18.8 16.9 14.3 75 2.6 S 17 24 9 13 1017.4 1017.3 2.0
20/01:30pm 16.5 15.4 14.3 87 1.3 S 13 22 7 12 1017.6 1017.5 2.0
20/01:05pm 16.8 15.1 12.5 76 2.4 SW 13 37 7 20 1017.8 1017.7 1.0
20/01:00pm 17.8 17.9 13.9 78 2.2 SSW 6 11 3 6 1017.6 1017.5 1.0
20/12:30pm 17.1 16.2 14.9 87 1.3 S 13 19 7 10 1018.0 1017.9 1.0
20/12:00pm 16.3 14.6 14.8 91 0.9 SW 17 24 9 13 1018.3 1018.2 0.8
20/11:30am 16.4 10.9 13.7 84 1.5 SW 35 46 19 25 1018.1 1018.0 0.2
20/11:25am 18.1 12.8 12.5 70 3.1 WSW 32 46 17 25 1018.0 1017.9 0.0
20/11:00am 19.7 14.7 10.9 57 4.8 W 28 35 15 19 1017.8 1017.7 0.0
20/10:30am 19.3 14.3 10.8 58 4.6 W 28 35 15 19 1017.9 1017.8 0.0
20/10:00am 19.4 14.5 11.4 60 4.4 WNW 28 35 15 19 1018.0 1017.9 0.0
20/09:30am 18.0 13.9 11.3 65 3.6 NW 24 32 13 17 1018.1 1018.0 0.0
20/09:00am 16.9 12.5 10.3 65 3.5 NW 24 30 13 16 1018.0 1017.9 0.0
20/08:30am 15.4 10.7 9.1 66 3.2 NW 24 32 13 17 1017.7 1017.6 0.0
20/08:00am 12.9 8.7 7.4 69 2.7 NNW 19 22 10 12 1017.5 1017.4 0.0
20/07:30am 11.7 7.4 7.0 73 2.3 NNW 19 22 10 12 1017.1 1017.0 0.0
20/07:00am 10.8 6.3 6.2 73 2.2 NNW 19 22 10 12 1016.9 1016.8 0.0
20/06:30am 10.7 6.5 5.9 72 2.2 NNW 17 22 9 12 1016.7 1016.6 0.0
20/06:00am 10.7 6.5 5.9 72 2.2 NNW 17 20 9 11 1016.4 1016.3 0.0
20/05:30am 11.1 7.0 6.3 72 2.3 NNW 17 20 9 11 1016.2 1016.1 0.0
20/05:00am 11.4 6.9 6.3 71 2.4 NNW 19 20 10 11 1016.1 1016.0 0.0
20/04:30am 11.5 7.3 5.8 68 2.7 NNW 17 22 9 12 1015.9 1015.8 0.0
20/04:00am 12.2 8.2 6.7 69 2.6 NNW 17 22 9 12 1015.6 1015.5 0.0
20/03:30am 11.3 7.9 6.0 70 2.5 N 13 17 7 9 1015.7 1015.6 0.0
20/03:00am 11.7 8.0 6.2 69 2.6 NNW 15 17 8 9 1015.9 1015.8 0.0
20/02:30am 11.3 7.5 5.8 69 2.6 NNW 15 19 8 10 1015.9 1015.8 0.0
20/02:00am 12.2 8.1 6.0 66 2.9 NNW 17 20 9 11 1016.0 1015.9 0.0
20/01:30am 12.8 8.4 6.6 66 3.0 N 19 20 10 11 1016.0 1015.9 0.0
20/01:00am 11.0 9.6 5.3 68 2.6 NNW 2 7 1 4 1016.1 1016.0 0.0
20/12:30am 11.9 9.3 6.2 68 2.7 NNE 9 15 5 8 1016.0 1015.9 0.0
20/12:00am 13.0 9.5 7.0 67 2.9 N 15 17 8 9 1016.3 1016.2 0.0
 
Date/Time
CST
Temp
°C
App
Temp
°C
Dew
Point
°C
Rel
Hum
%
Delta-T
°C
Wind Press
QNH
hPa
Press
MSL
hPa
Rain since
9am
mm
Dir  Spd
km/h
Gust
km/h
Spd
kts
Gust
kts
19/11:30pm 12.9 9.7 6.9 67 2.9 N 13 15 7 8 1016.7 1016.6 0.0
19/11:00pm 10.9 8.6 5.0 67 2.7 NNW 6 11 3 6 1017.1 1017.0 0.0
19/10:30pm 10.7 9.5 4.6 66 2.7 CALM 0 0 0 0 1017.2 1017.1 0.0
19/10:00pm 10.1 7.3 3.2 62 3.0 NNW 7 9 4 5 1017.3 1017.2 0.0
19/09:30pm 9.8 6.8 1.9 58 3.3 NNW 7 7 4 4 1017.2 1017.1 0.0
19/09:00pm 10.2 6.8 1.8 56 3.5 NNE 9 9 5 5 1017.1 1017.0 0.0
19/08:30pm 11.0 9.3 1.8 53 3.9 CALM 0 0 0 0 1016.9 1016.8 0.0
19/08:00pm 12.6 11.2 3.3 53 4.1 CALM 0 0 0 0 1016.8 1016.7 0.0
19/07:30pm 14.4 11.9 4.7 52 4.5 SW 7 9 4 5 1016.8 1016.7 0.0
19/07:00pm 15.9 11.6 5.2 49 5.1 SW 17 22 9 12 1016.8 1016.7 0.0
19/06:30pm 17.0 12.7 5.3 46 5.6 SW 17 22 9 12 1016.3 1016.2 0.0
19/06:00pm 18.4 12.5 5.6 43 6.3 SW 26 33 14 18 1015.9 1015.8 0.0
19/05:30pm 19.9 13.1 5.2 38 7.2 SW 30 39 16 21 1015.6 1015.5 0.0
19/05:00pm 22.7 16.2 2.8 27 9.5 W 26 35 14 19 1015.3 1015.1 0.0
19/04:30pm 23.3 18.1 2.7 26 9.9 W 19 28 10 15 1015.2 1015.0 0.0
19/04:00pm 23.9 18.5 2.7 25 10.2 WNW 20 33 11 18 1015.3 1015.1 0.0
19/03:30pm 24.0 17.4 2.2 24 10.4 WNW 26 37 14 20 1015.6 1015.5 0.0
19/03:08pm 23.7 16.8 2.5 25 10.2 WNW 28 39 15 21 1015.7 1015.6 0.0
19/03:00pm 23.8 18.2 3.7 27 9.8 NW 22 41 12 22 1015.7 1015.6 0.0
19/02:30pm 23.7 16.9 3.1 26 10.0 WNW 28 39 15 21 1015.8 1015.7 0.0
19/02:00pm 23.6 16.9 3.5 27 9.8 WNW 28 37 15 20 1016.2 1016.1 0.0
19/01:30pm 23.3 17.4 3.8 28 9.5 WNW 24 35 13 19 1016.6 1016.5 0.0
19/01:00pm 23.0 16.3 3.5 28 9.5 WNW 28 39 15 21 1017.3 1017.2 0.0
19/12:30pm 22.3 15.1 2.9 28 9.3 WNW 30 43 16 23 1018.1 1018.0 0.0
19/12:00pm 22.4 15.7 3.5 29 9.1 WNW 28 39 15 21 1018.6 1018.5 0.0
19/11:30am 21.9 16.8 4.0 31 8.7 NW 20 30 11 16 1019.0 1018.9 0.0
19/11:00am 21.0 16.6 4.6 34 8.0 WNW 17 26 9 14 1019.6 1019.4 0.0
19/10:30am 20.2 15.7 6.2 40 7.0 NNW 19 26 10 14 1020.1 1019.9 0.0
19/10:00am 19.8 15.8 6.5 42 6.7 N 17 22 9 12 1020.3 1020.1 0.0
19/09:30am 18.2 13.9 7.0 48 5.6 N 19 24 10 13 1020.6 1020.4 0.0
19/09:00am 16.9 12.1 7.3 53 4.8 N 22 28 12 15 1020.6 1020.4 0.0
19/08:30am 16.1 12.4 7.8 58 4.2 N 17 22 9 12 1020.7 1020.5 0.0
19/08:00am 12.2 11.8 8.1 76 2.0 CALM 0 0 0 0 1020.6 1020.4 0.0
19/07:30am 7.5 6.4 5.1 85 1.1 CALM 0 0 0 0 1020.7 1020.5 0.0
19/07:00am 6.0 4.6 3.5 84 1.1 CALM 0 0 0 0 1020.7 1020.5 0.0
19/06:30am 6.7 5.4 4.0 83 1.2 CALM 0 0 0 0 1020.7 1020.5 0.0
19/06:00am 7.5 4.6 4.8 83 1.2 NE 9 13 5 7 1020.6 1020.4 0.0
19/05:30am 6.3 3.8 3.5 82 1.2 NNE 6 7 3 4 1020.7 1020.5 0.0
19/05:00am 7.6 5.3 4.9 83 1.2 NE 6 7 3 4 1020.6 1020.4 0.0
19/04:30am 7.4 4.5 4.4 81 1.3 NNE 9 11 5 6 1020.7 1020.5 0.0
19/04:00am 7.4 4.9 4.5 82 1.3 NE 7 9 4 5 1020.9 1020.7 0.0
19/03:30am 7.0 4.4 4.0 81 1.3 NNE 7 9 4 5 1021.1 1020.9 0.0
19/03:00am 7.2 4.8 4.2 81 1.3 NE 6 9 3 5 1021.3 1021.1 0.0
19/02:30am 7.5 4.6 4.5 81 1.3 NE 9 11 5 6 1021.6 1021.4 0.0
19/02:00am 7.0 4.2 3.4 78 1.5 NE 7 9 4 5 1022.1 1021.9 0.0
19/01:30am 7.5 4.4 3.6 76 1.7 NE 9 13 5 7 1022.4 1022.2 0.0
19/01:00am 7.3 4.6 2.8 73 1.9 NNE 6 7 3 4 1022.5 1022.3 0.0
19/12:30am 7.9 5.2 2.8 70 2.1 NNE 6 7 3 4 1022.6 1022.4 0.0
19/12:00am 8.5 7.0 2.9 68 2.4 CALM 0 0 0 0 1022.9 1022.7 0.0
 
Date/Time
CST
Temp
°C
App
Temp
°C
Dew
Point
°C
Rel
Hum
%
Delta-T
°C
Wind Press
QNH
hPa
Press
MSL
hPa
Rain since
9am
mm
Dir  Spd
km/h
Gust
km/h
Spd
kts
Gust
kts
18/11:30pm 9.1 7.2 3.1 66 2.6 NNE 2 6 1 3 1023.2 1023.0 0.0
18/11:00pm 10.7 9.5 4.6 66 2.8 CALM 0 0 0 0 1023.3 1023.1 0.0
18/10:30pm 12.0 11.0 5.4 64 3.1 CALM 0 0 0 0 1023.5 1023.3 0.0
18/10:00pm 12.4 10.5 5.1 61 3.4 NNW 4 9 2 5 1023.9 1023.7 0.0
18/09:30pm 15.1 13.3 7.2 59 3.9 W 6 7 3 4 1023.8 1023.6 0.0
18/09:00pm 15.0 13.9 7.1 59 3.9 SSW 2 6 1 3 1024.0 1023.8 0.0
18/08:30pm 15.6 13.3 7.6 59 4.0 SW 9 11 5 6 1024.1 1023.9 0.0
18/08:00pm 15.9 13.7 7.7 58 4.1 SW 9 11 5 6 1024.2 1024.0 0.0
18/07:30pm 16.6 14.8 8.1 57 4.3 SSW 7 11 4 6 1024.4 1024.2 0.0
18/07:00pm 16.9 13.7 8.3 57 4.4 SSW 15 17 8 9 1024.4 1024.2 0.0
18/06:30pm 17.0 13.4 8.2 56 4.5 SSW 17 20 9 11 1024.2 1024.0 0.0
18/06:00pm 17.6 13.5 7.9 53 4.9 S 19 24 10 13 1024.0 1023.8 0.0
18/05:30pm 18.3 14.1 8.3 52 5.1 SSW 20 24 11 13 1023.9 1023.7 0.0
18/05:00pm 18.6 14.1 8.6 52 5.2 SSW 22 28 12 15 1023.7 1023.5 0.0
18/04:30pm 19.2 14.2 8.2 49 5.7 SSW 24 32 13 17 1023.7 1023.5 0.0
18/04:00pm 20.1 15.8 5.4 38 7.3 SSW 17 22 9 12 1023.7 1023.5 0.0
18/03:30pm 20.4 17.1 4.4 35 7.7 SW 11 19 6 10 1024.0 1023.8 0.0
18/03:00pm 20.5 17.2 4.5 35 7.7 W 11 17 6 9 1024.1 1023.9 0.0
18/02:30pm 21.0 18.1 4.6 34 8.0 SW 9 19 5 10 1024.3 1024.1 0.0
18/02:00pm 20.4 17.5 4.8 36 7.6 W 9 19 5 10 1024.7 1024.5 0.0
18/01:30pm 20.4 17.7 5.6 38 7.3 W 9 20 5 11 1025.1 1024.9 0.0
18/01:00pm 19.6 16.5 5.6 40 6.9 S 11 19 6 10 1025.6 1025.5 0.0
18/12:30pm 19.4 16.6 5.1 39 6.9 SW 9 17 5 9 1025.9 1025.8 0.0
18/12:00pm 19.4 16.7 5.8 41 6.7 SSW 9 19 5 10 1026.5 1026.4 0.0
18/11:30am 18.8 16.1 5.6 42 6.4 WSW 9 15 5 8 1026.8 1026.7 0.0
18/11:00am 19.2 17.4 7.3 46 6.1 SSE 6 15 3 8 1027.2 1027.1 0.0
18/10:30am 18.3 16.8 8.6 53 5.0 SW 6 11 3 6 1027.5 1027.4 0.0
18/10:00am 17.1 15.7 9.0 59 4.2 S 6 9 3 5 1027.8 1027.7 0.0
18/09:30am 16.2 15.7 9.4 64 3.5 SSE 2 7 1 4 1028.0 1027.9 0.0
18/09:00am 13.4 11.7 7.6 68 2.8 SSW 6 7 3 4 1028.1 1028.0 0.0
18/08:30am 12.3 10.5 7.2 71 2.5 SSW 6 7 3 4 1028.1 1028.0 0.0
18/08:00am 10.4 9.7 6.9 79 1.7 CALM 0 0 0 0 1027.8 1027.7 0.0
18/07:30am 7.6 5.2 5.2 85 1.1 NE 7 9 4 5 1027.6 1027.5 0.0
18/07:00am 6.3 5.0 4.1 86 0.9 CALM 0 0 0 0 1027.4 1027.3 0.0
18/06:30am 6.3 5.0 4.0 85 1.0 CALM 0 0 0 0 1027.3 1027.2 0.0
18/06:00am 5.9 3.1 3.2 83 1.1 NE 7 9 4 5 1027.2 1027.1 0.0
18/05:30am 6.0 4.2 3.2 82 1.2 NNE 2 6 1 3 1027.3 1027.2 0.0
18/05:00am 6.6 5.2 3.8 82 1.2 CALM 0 2 0 1 1027.1 1027.0 0.0
18/04:30am 6.7 5.4 3.9 82 1.2 CALM 0 0 0 0 1027.1 1027.0 0.0
18/04:00am 6.3 4.8 3.1 80 1.3 CALM 0 0 0 0 1027.3 1027.2 0.0
18/03:30am 6.1 4.5 2.6 78 1.4 CALM 0 0 0 0 1027.4 1027.3 0.0
18/03:00am 6.7 5.3 3.3 79 1.4 CALM 0 0 0 0 1027.6 1027.5 0.0
18/02:30am 6.6 5.0 2.7 76 1.6 CALM 0 0 0 0 1027.6 1027.5 0.0
18/02:00am 6.6 5.0 2.3 74 1.8 CALM 0 0 0 0 1027.8 1027.7 0.0
18/01:30am 7.3 5.8 3.0 74 1.8 CALM 0 0 0 0 1028.0 1027.9 0.0
18/01:00am 7.3 5.7 2.6 72 2.0 CALM 0 0 0 0 1028.2 1028.1 0.0
18/12:30am 7.9 6.4 3.2 72 2.0 CALM 0 0 0 0 1028.4 1028.3 0.0
18/12:00am 8.2 6.3 2.9 69 2.2 N 2 7 1 4 1028.6 1028.5 0.0
 
Date/Time
CST
Temp
°C
App
Temp
°C
Dew
Point
°C
Rel
Hum
%
Delta-T
°C
Wind Press
QNH
hPa
Press
MSL
hPa
Rain since
9am
mm
Dir  Spd
km/h
Gust
km/h
Spd
kts
Gust
kts
17/11:30pm 8.7 7.2 3.1 68 2.4 CALM 0 2 0 1 1028.6 1028.5 0.0
17/11:00pm 9.8 8.6 4.4 69 2.4 CALM 0 0 0 0 1028.9 1028.8 0.0
17/10:30pm 10.2 8.9 4.1 66 2.7 CALM 0 0 0 0 1029.1 1029.0 0.0
17/10:00pm 10.8 7.9 4.7 66 2.8 SSW 9 9 5 5 1029.0 1028.9 0.0
17/09:30pm 11.5 10.5 5.4 66 2.8 CALM 0 0 0 0 1029.0 1028.9 0.0
17/09:00pm 12.9 12.1 6.3 64 3.1 CALM 0 0 0 0 1029.1 1029.0 0.0
17/08:30pm 13.8 11.6 6.2 60 3.6 SSW 7 9 4 5 1028.9 1028.8 0.0
17/08:00pm 14.4 12.2 6.0 57 4.0 SSW 7 9 4 5 1028.6 1028.5 0.0
17/07:30pm 15.2 12.1 5.7 53 4.5 SW 11 15 6 8 1028.4 1028.3 0.0
17/07:00pm 16.3 12.3 5.0 47 5.4 SW 15 19 8 10 1028.0 1027.9 0.0
17/06:30pm 17.3 11.6 4.9 44 5.9 SW 24 28 13 15 1027.8 1027.7 0.0
17/06:00pm 18.4 11.5 4.6 40 6.6 SW 30 37 16 20 1027.5 1027.4 0.0
17/05:30pm 19.7 12.6 3.8 35 7.5 SW 30 35 16 19 1027.3 1027.2 0.0
17/05:00pm 21.2 14.2 3.9 32 8.4 SW 30 41 16 22 1027.2 1027.1 0.0
17/04:30pm 21.8 17.2 3.5 30 8.8 SSW 17 24 9 13 1027.0 1026.9 0.0

Other formats

Comma delimited format used in spreadsheet applications
http://www.bom.gov.au/fwo/IDS60801/IDS60801.95654.axf

JavaScript Object Notation format (JSON) in row-major order
http://www.bom.gov.au/fwo/IDS60801/IDS60801.95654.json

Data quality

Most of these data are generated automatically and are frequently updated. Quality checks on data are not normally performed. It is possible for incorrect values to appear. Refer to information at About Latest Weather Observations and please check the disclaimer before using these data.